Time;durP1;ratioP1;P1;durP2;ratioP2;P2;SDS_P1;SDS_P2;PMS_P1;PMS_P2;Temp;Humidity;BMP_temperature;BMP_pressure;BME280_temperature;BME280_humidity;BME280_pressure;Samples;Min_cycle;Max_cycle;Signal;HPM_P1;HPM_P2
2021/10/11 00:02:07;;;;;;;13.03;7.67;;;;;;;1.11;nan;101684.47;4967882;28;20042;-80
2021/10/11 00:04:34;;;;;;;12.13;7.30;;;;;;;1.01;nan;101677.16;4995946;28;20038;-80
2021/10/11 00:07:01;;;;;;;12.33;7.93;;;;;;;1.05;nan;101678.16;4966028;28;20042;-79
2021/10/11 00:09:32;;;;;;;12.43;7.60;;;;;;;1.04;nan;101677.25;4974846;28;20048;-80
2021/10/11 00:11:59;;;;;;;10.43;7.20;;;;;;;0.99;nan;101684.00;4973829;28;20042;-78
2021/10/11 00:14:26;;;;;;;10.20;7.13;;;;;;;0.97;nan;101677.00;5006219;28;20034;-80
2021/10/11 00:16:53;;;;;;;11.30;7.87;;;;;;;0.87;nan;101678.41;5000007;28;20068;-80
2021/10/11 00:19:23;;;;;;;13.87;7.50;;;;;;;0.90;nan;101675.00;4979623;28;20057;-80
2021/10/11 00:21:52;;;;;;;11.73;7.63;;;;;;;0.87;nan;101681.00;4990529;28;20132;-79
2021/10/11 00:24:19;;;;;;;13.23;7.73;;;;;;;0.90;nan;101672.41;4952291;28;20072;-80
2021/10/11 00:26:46;;;;;;;14.03;8.77;;;;;;;0.86;nan;101681.84;4981531;28;20048;-80
2021/10/11 00:29:13;;;;;;;11.77;7.43;;;;;;;0.82;nan;101673.03;5005188;28;20045;-80
2021/10/11 00:31:40;;;;;;;11.67;7.40;;;;;;;0.77;nan;101671.09;4962137;28;20074;-80
2021/10/11 00:34:07;;;;;;;11.37;6.80;;;;;;;0.74;nan;101665.78;4987758;28;20048;-80
2021/10/11 00:39:08;;;;;;;13.68;7.72;;;;;;;0.69;nan;101664.75;5012427;28;20049;-79
2021/10/11 00:41:35;;;;;;;12.87;7.63;;;;;;;0.70;nan;101657.00;5008333;28;20043;-80
2021/10/11 00:44:02;;;;;;;11.90;6.97;;;;;;;0.65;nan;101660.25;5027644;28;20044;-80
2021/10/11 00:46:29;;;;;;;12.80;8.70;;;;;;;0.65;nan;101655.94;5013952;28;20042;-80
2021/10/11 00:48:56;;;;;;;12.63;7.63;;;;;;;0.62;nan;101644.56;5012409;28;20059;-78
2021/10/11 00:51:23;;;;;;;14.77;8.23;;;;;;;0.59;nan;101634.03;4993219;28;20037;-80
2021/10/11 00:53:50;;;;;;;11.83;7.70;;;;;;;0.62;nan;101635.03;5012668;28;20041;-79
2021/10/11 00:56:17;;;;;;;12.57;8.20;;;;;;;0.65;nan;101629.03;5013820;28;20029;-79
2021/10/11 00:58:44;;;;;;;13.03;8.23;;;;;;;0.66;nan;101633.41;5011748;28;20038;-80
2021/10/11 01:01:11;;;;;;;14.37;8.30;;;;;;;0.68;nan;101626.56;5013448;28;20033;-78
2021/10/11 01:03:38;;;;;;;18.37;9.13;;;;;;;0.67;nan;101620.47;4987790;28;20661;-80
2021/10/11 01:06:05;;;;;;;12.70;8.60;;;;;;;0.69;nan;101616.22;4993485;28;20038;-80
2021/10/11 01:08:32;;;;;;;14.23;8.93;;;;;;;0.77;nan;101611.28;4991594;28;20054;-80
2021/10/11 01:11:01;;;;;;;11.93;8.53;;;;;;;0.79;nan;101604.41;4995989;28;20520;-80
2021/10/11 01:13:28;;;;;;;14.40;8.43;;;;;;;0.76;nan;101594.78;4992522;28;20041;-80
2021/10/11 01:15:55;;;;;;;15.60;8.33;;;;;;;0.79;nan;101594.00;4996492;28;20063;-78
2021/10/11 01:18:22;;;;;;;12.33;8.20;;;;;;;0.81;nan;101582.81;5012666;28;20037;-80
2021/10/11 01:20:49;;;;;;;26.33;9.10;;;;;;;0.86;nan;101580.38;5030238;28;20498;-80
2021/10/11 01:23:16;;;;;;;15.60;8.73;;;;;;;0.87;nan;101570.84;4975770;28;20042;-79
2021/10/11 01:25:43;;;;;;;13.13;8.27;;;;;;;0.87;nan;101569.13;5007894;28;20048;-80
2021/10/11 01:28:10;;;;;;;12.27;8.27;;;;;;;0.92;nan;101564.94;5010871;28;20087;-80
2021/10/11 01:30:37;;;;;;;22.17;9.93;;;;;;;0.95;nan;101561.59;5000116;28;20390;-80
2021/10/11 01:33:04;;;;;;;13.67;8.53;;;;;;;0.99;nan;101555.63;5008622;28;20482;-81
2021/10/11 01:35:31;;;;;;;14.63;9.27;;;;;;;0.99;nan;101556.50;4996550;28;20376;-79
2021/10/11 01:37:58;;;;;;;13.60;8.20;;;;;;;1.01;nan;101541.88;4994447;28;20038;-80
2021/10/11 01:40:25;;;;;;;14.07;8.10;;;;;;;1.15;nan;101531.00;5013383;28;20063;-81
2021/10/11 01:42:52;;;;;;;13.20;8.13;;;;;;;1.21;nan;101546.81;5013127;28;20513;-82
2021/10/11 01:45:19;;;;;;;14.00;8.47;;;;;;;1.18;nan;101545.00;4995114;28;20664;-80
2021/10/11 01:47:46;;;;;;;12.57;7.90;;;;;;;1.19;nan;101530.28;5010430;28;20063;-80
2021/10/11 01:50:13;;;;;;;13.00;8.80;;;;;;;1.26;nan;101529.59;4994383;28;20049;-79
2021/10/11 01:52:40;;;;;;;14.23;8.20;;;;;;;1.24;nan;101537.38;4979407;28;20044;-80
2021/10/11 01:55:07;;;;;;;13.83;8.77;;;;;;;1.34;nan;101543.75;5013629;28;20049;-80
2021/10/11 01:57:36;;;;;;;14.50;9.63;;;;;;;1.30;nan;101545.38;5013180;28;20045;-81
2021/10/11 02:00:05;;;;;;;13.73;8.50;;;;;;;1.29;nan;101535.81;5014187;28;20043;-81
2021/10/11 02:02:35;;;;;;;12.97;8.27;;;;;;;1.33;nan;101531.56;4991980;28;20034;-81
2021/10/11 02:05:02;;;;;;;14.70;8.47;;;;;;;1.33;nan;101527.25;5012250;28;20044;-81
2021/10/11 02:07:29;;;;;;;14.77;8.97;;;;;;;1.27;nan;101524.47;4988981;28;20052;-80
2021/10/11 02:09:56;;;;;;;11.60;8.50;;;;;;;1.33;nan;101516.81;4994883;28;20037;-81
2021/10/11 02:12:29;;;;;;;12.33;8.20;;;;;;;1.35;nan;101512.56;5012773;28;20044;-80
2021/10/11 02:14:56;;;;;;;14.90;8.80;;;;;;;1.37;nan;101510.00;5004591;28;20196;-80
2021/10/11 02:17:23;;;;;;;12.13;8.27;;;;;;;1.41;nan;101506.66;4985753;28;20044;-80
2021/10/11 02:19:50;;;;;;;10.63;7.43;;;;;;;1.41;nan;101509.25;4980069;28;20042;-80
2021/10/11 02:22:17;;;;;;;9.90;7.17;;;;;;;1.40;nan;101503.16;5015157;28;20037;-81
2021/10/11 02:24:44;;;;;;;10.87;7.43;;;;;;;1.40;nan;101510.97;4985277;28;20045;-81
2021/10/11 02:27:11;;;;;;;11.67;7.23;;;;;;;1.44;nan;101498.94;5016188;28;20041;-81
2021/10/11 02:29:38;;;;;;;12.43;8.07;;;;;;;1.46;nan;101491.19;4997498;28;20407;-80
2021/10/11 02:32:05;;;;;;;15.53;8.53;;;;;;;1.51;nan;101506.06;5015307;28;20517;-80
2021/10/11 02:34:32;;;;;;;12.90;8.53;;;;;;;1.56;nan;101501.91;5000679;28;20048;-81
2021/10/11 02:36:59;;;;;;;13.57;9.33;;;;;;;1.56;nan;101499.28;4998051;28;20603;-78
2021/10/11 02:39:26;;;;;;;16.20;9.90;;;;;;;1.65;nan;101501.28;5000322;28;20047;-81
2021/10/11 02:41:54;;;;;;;16.03;10.10;;;;;;;1.65;nan;101503.91;5019084;28;20494;-81
2021/10/11 02:44:21;;;;;;;16.60;9.37;;;;;;;1.66;nan;101490.03;5012900;28;20033;-81
2021/10/11 02:46:48;;;;;;;17.93;10.33;;;;;;;1.63;nan;101485.63;4996889;28;20037;-81
2021/10/11 02:49:15;;;;;;;15.27;9.23;;;;;;;1.68;nan;101488.34;4996497;28;20038;-80
2021/10/11 02:51:42;;;;;;;16.33;9.57;;;;;;;1.66;nan;101488.31;5015879;28;20041;-81
2021/10/11 02:54:09;;;;;;;15.07;9.50;;;;;;;1.68;nan;101489.25;4997024;28;20042;-81
2021/10/11 02:56:36;;;;;;;13.57;8.87;;;;;;;1.69;nan;101474.50;4999822;28;20071;-81
2021/10/11 02:59:02;;;;;;;15.37;9.73;;;;;;;1.74;nan;101477.22;5014334;28;20042;-81
2021/10/11 03:01:29;;;;;;;15.23;9.80;;;;;;;1.75;nan;101466.84;5014780;28;20037;-81
2021/10/11 03:03:56;;;;;;;16.53;10.97;;;;;;;1.79;nan;101460.00;4994727;28;20030;-81
2021/10/11 03:06:23;;;;;;;17.63;10.40;;;;;;;1.84;nan;101461.00;5011747;28;20049;-81
2021/10/11 03:08:54;;;;;;;15.23;10.60;;;;;;;1.85;nan;101457.56;5030890;28;20044;-81
2021/10/11 03:11:21;;;;;;;15.27;9.77;;;;;;;1.86;nan;101460.22;4999273;28;20408;-80
2021/10/11 03:13:48;;;;;;;19.40;11.57;;;;;;;1.92;nan;101443.84;5013309;28;20485;-80
2021/10/11 03:16:15;;;;;;;17.40;11.17;;;;;;;1.95;nan;101451.78;5015406;28;20397;-80
2021/10/11 03:18:42;;;;;;;20.13;10.80;;;;;;;2.02;nan;101456.31;5013321;28;20033;-81
2021/10/11 03:21:09;;;;;;;17.77;10.93;;;;;;;1.97;nan;101455.31;4982827;28;20046;-81
2021/10/11 03:23:36;;;;;;;16.57;10.40;;;;;;;1.94;nan;101450.03;5013415;28;20033;-80
2021/10/11 03:26:02;;;;;;;23.67;14.07;;;;;;;1.96;nan;101444.00;4997936;28;20044;-80
2021/10/11 03:28:29;;;;;;;18.97;11.03;;;;;;;1.98;nan;101444.91;5013029;28;20052;-80
2021/10/11 03:30:56;;;;;;;16.43;10.90;;;;;;;1.96;nan;101441.38;4998225;28;20046;-80
2021/10/11 03:33:23;;;;;;;17.60;10.63;;;;;;;1.95;nan;101446.56;4991986;28;20044;-79
2021/10/11 03:35:50;;;;;;;16.50;10.47;;;;;;;1.97;nan;101450.09;4993879;28;20048;-80
2021/10/11 03:38:17;;;;;;;20.73;11.53;;;;;;;1.93;nan;101446.53;5028800;28;20037;-80
2021/10/11 03:40:44;;;;;;;18.37;10.70;;;;;;;1.96;nan;101437.91;4998981;28;20054;-80
2021/10/11 03:43:12;;;;;;;15.33;9.80;;;;;;;1.98;nan;101437.09;5013657;28;20033;-81
2021/10/11 03:45:39;;;;;;;17.13;10.40;;;;;;;2.01;nan;101430.19;4997969;28;20033;-80
2021/10/11 03:48:06;;;;;;;17.83;10.97;;;;;;;2.07;nan;101436.47;4979730;28;20395;-80
2021/10/11 03:50:33;;;;;;;18.70;10.67;;;;;;;2.09;nan;101428.66;5011269;28;20033;-80
2021/10/11 03:53:00;;;;;;;14.90;10.03;;;;;;;2.13;nan;101427.94;5010674;28;20033;-81
2021/10/11 03:55:27;;;;;;;18.70;10.53;;;;;;;2.17;nan;101421.94;4998739;28;20042;-80
2021/10/11 03:57:54;;;;;;;16.33;10.63;;;;;;;2.44;nan;101437.41;5012498;28;20041;-80
2021/10/11 04:00:21;;;;;;;17.93;10.50;;;;;;;2.30;nan;101423.16;5013255;28;20043;-80
2021/10/11 04:02:48;;;;;;;17.80;10.23;;;;;;;2.40;nan;101417.31;5030656;28;20041;-80
2021/10/11 04:05:15;;;;;;;15.17;10.20;;;;;;;2.40;nan;101435.56;5014364;28;20041;-80
2021/10/11 04:07:44;;;;;;;18.37;11.13;;;;;;;2.20;nan;101420.31;5012683;28;20037;-80
2021/10/11 04:10:12;;;;;;;19.73;10.43;;;;;;;2.17;nan;101422.81;5026845;28;20067;-80
2021/10/11 04:12:39;;;;;;;13.07;9.40;;;;;;;2.14;nan;101414.94;5013194;28;20041;-80
2021/10/11 04:15:07;;;;;;;17.30;10.30;;;;;;;2.19;nan;101418.53;5014323;28;20052;-80
2021/10/11 04:17:38;;;;;;;16.97;10.13;;;;;;;2.16;nan;101425.38;4996440;28;20033;-80
2021/10/11 04:20:08;;;;;;;13.97;9.37;;;;;;;2.11;nan;101424.41;5013804;28;20053;-80
2021/10/11 04:22:35;;;;;;;17.00;10.33;;;;;;;2.12;nan;101420.94;5012841;28;20037;-80
2021/10/11 04:25:03;;;;;;;18.30;11.03;;;;;;;2.13;nan;101418.38;4997910;28;20040;-80
2021/10/11 04:27:29;;;;;;;19.77;11.70;;;;;;;2.15;nan;101408.00;5030522;28;20064;-80
2021/10/11 04:29:56;;;;;;;18.30;11.40;;;;;;;2.19;nan;101405.50;4996838;28;20041;-80
2021/10/11 04:32:23;;;;;;;15.97;10.67;;;;;;;2.18;nan;101403.72;4996916;28;20051;-80
2021/10/11 04:34:50;;;;;;;15.07;10.17;;;;;;;2.25;nan;101403.03;5014470;28;20053;-80
2021/10/11 04:37:17;;;;;;;16.83;10.40;;;;;;;2.23;nan;101393.41;4995967;28;20041;-79
2021/10/11 04:39:44;;;;;;;16.43;10.23;;;;;;;2.23;nan;101386.47;5031495;28;20041;-80
2021/10/11 04:42:11;;;;;;;17.83;11.80;;;;;;;2.26;nan;101390.88;5012815;28;20433;-79
2021/10/11 04:44:38;;;;;;;19.90;11.43;;;;;;;2.24;nan;101388.25;4996712;28;20052;-80
2021/10/11 04:47:05;;;;;;;20.57;12.43;;;;;;;2.29;nan;101388.38;5011250;28;20037;-80
2021/10/11 04:49:33;;;;;;;17.50;11.67;;;;;;;2.27;nan;101379.63;4997183;28;20112;-80
2021/10/11 04:51:59;;;;;;;20.67;11.47;;;;;;;2.32;nan;101387.56;4995468;28;20042;-80
2021/10/11 04:54:26;;;;;;;21.70;12.90;;;;;;;2.32;nan;101398.88;5013854;28;20379;-80
2021/10/11 04:56:53;;;;;;;18.40;11.30;;;;;;;2.31;nan;101388.41;5012243;28;20030;-80
2021/10/11 04:59:20;;;;;;;17.77;12.03;;;;;;;2.30;nan;101391.84;4981060;28;20044;-80
2021/10/11 05:01:47;;;;;;;16.13;11.47;;;;;;;2.30;nan;101394.47;4996142;28;20052;-81
2021/10/11 05:04:14;;;;;;;20.10;12.33;;;;;;;2.45;nan;101387.03;4996321;28;20038;-80
2021/10/11 05:06:41;;;;;;;21.57;13.00;;;;;;;2.35;nan;101380.69;4980077;28;20054;-80
2021/10/11 05:09:11;;;;;;;19.60;12.03;;;;;;;2.35;nan;101379.78;4977994;28;20034;-81
2021/10/11 05:11:38;;;;;;;23.10;13.20;;;;;;;2.37;nan;101367.69;4991775;28;20026;-81
2021/10/11 05:14:05;;;;;;;20.40;12.83;;;;;;;2.41;nan;101365.19;5031215;28;20043;-81
2021/10/11 05:16:35;;;;;;;20.83;13.67;;;;;;;2.46;nan;101368.78;5014820;28;20025;-82
2021/10/11 05:19:02;;;;;;;18.33;12.30;;;;;;;2.45;nan;101364.44;4998072;28;20528;-82
2021/10/11 05:21:30;;;;;;;22.63;13.67;;;;;;;2.46;nan;101368.78;5015987;28;20033;-82
2021/10/11 05:23:57;;;;;;;21.43;12.90;;;;;;;2.51;nan;101363.66;4998394;28;20033;-81
2021/10/11 05:26:26;;;;;;;18.17;11.67;;;;;;;2.53;nan;101372.44;4995234;28;20045;-82
2021/10/11 05:28:53;;;;;;;21.33;12.87;;;;;;;2.53;nan;101375.03;4981679;28;20045;-81
2021/10/11 05:31:20;;;;;;;22.90;13.50;;;;;;;2.53;nan;101372.44;4999789;28;20048;-82
2021/10/11 05:33:47;;;;;;;19.80;12.63;;;;;;;2.58;nan;101370.81;4993783;28;20046;-81
2021/10/11 05:36:15;;;;;;;19.90;12.27;;;;;;;2.57;nan;101365.56;4962951;28;20508;-82
2021/10/11 05:38:42;;;;;;;19.63;12.47;;;;;;;2.58;nan;101370.81;5009133;28;20048;-82
2021/10/11 05:41:09;;;;;;;21.30;12.63;;;;;;;2.62;nan;101367.44;4997637;28;20067;-82
2021/10/11 05:43:36;;;;;;;22.17;12.37;;;;;;;2.61;nan;101373.50;4979415;28;20507;-82
2021/10/11 05:46:04;;;;;;;22.53;13.07;;;;;;;2.67;nan;101376.22;5014389;28;20041;-82
2021/10/11 05:48:34;;;;;;;21.43;12.80;;;;;;;2.70;nan;101380.66;4981076;28;20041;-82
2021/10/11 05:51:01;;;;;;;21.20;12.93;;;;;;;2.70;nan;101372.81;4995389;28;20040;-82
2021/10/11 05:53:28;;;;;;;18.23;12.50;;;;;;;2.77;nan;101386.03;4996688;28;20037;-82
2021/10/11 05:55:55;;;;;;;22.73;13.00;;;;;;;2.79;nan;101389.56;5008883;28;20034;-83
2021/10/11 05:58:22;;;;;;;20.83;13.13;;;;;;;2.85;nan;101387.94;4979097;28;20057;-80
2021/10/11 06:00:49;;;;;;;22.33;12.70;;;;;;;2.88;nan;101386.28;4992466;28;20052;-82
2021/10/11 06:03:16;;;;;;;23.07;13.87;;;;;;;2.97;nan;101386.50;4992374;28;20026;-80
2021/10/11 06:05:43;;;;;;;23.37;14.57;;;;;;;3.01;nan;101388.31;4977894;28;20045;-81
2021/10/11 06:08:10;;;;;;;23.87;13.90;;;;;;;3.07;nan;101384.97;5003880;28;20041;-81
2021/10/11 06:10:38;;;;;;;24.53;14.53;;;;;;;3.16;nan;101385.16;4996064;28;20042;-81
2021/10/11 06:13:04;;;;;;;23.47;14.10;;;;;;;3.22;nan;101382.66;4998226;28;20040;-81
2021/10/11 06:15:31;;;;;;;24.03;14.20;;;;;;;3.30;nan;101391.56;4995681;28;20043;-82
2021/10/11 06:17:58;;;;;;;21.53;13.20;;;;;;;3.34;nan;101388.13;4995194;28;20042;-83
2021/10/11 06:20:25;;;;;;;22.90;13.13;;;;;;;3.39;nan;101385.63;4980666;28;20046;-83
2021/10/11 06:22:52;;;;;;;23.43;14.80;;;;;;;3.44;nan;101397.03;4994940;28;20041;-82
2021/10/11 06:25:19;;;;;;;24.27;14.40;;;;;;;3.49;nan;101395.41;4991048;28;20502;-80
2021/10/11 06:27:46;;;;;;;26.80;17.13;;;;;;;3.68;nan;101397.53;4995536;28;20042;-79
2021/10/11 06:30:13;;;;;;;21.03;14.67;;;;;;;3.67;nan;101394.88;4995188;28;20491;-80
2021/10/11 06:32:40;;;;;;;24.87;14.90;;;;;;;3.68;nan;101394.91;4989454;28;20044;-82
2021/10/11 06:35:07;;;;;;;22.10;14.40;;;;;;;3.75;nan;101405.50;4995844;28;20047;-80
2021/10/11 06:37:34;;;;;;;26.07;17.33;;;;;;;3.80;nan;101406.47;4990882;28;20521;-81
2021/10/11 06:40:03;;;;;;;94.40;44.40;;;;;;;3.90;nan;101400.56;5002798;28;20426;-81
2021/10/11 06:42:40;;;;;;;52.57;30.77;;;;;;;3.90;nan;101414.50;4995649;28;20046;-81
2021/10/11 06:45:08;;;;;;;36.90;22.40;;;;;;;3.94;nan;101410.19;5009672;28;20042;-82
2021/10/11 06:47:35;;;;;;;26.37;16.93;;;;;;;3.99;nan;101411.19;4997879;28;20040;-80
2021/10/11 06:50:02;;;;;;;28.90;16.73;;;;;;;4.04;nan;101406.06;5025560;28;20043;-81
2021/10/11 06:52:29;;;;;;;23.37;14.57;;;;;;;4.07;nan;101400.88;4997207;28;20403;-80
2021/10/11 06:54:55;;;;;;;27.93;16.80;;;;;;;4.10;nan;101400.91;5013022;23;20054;-80
2021/10/11 06:57:22;;;;;;;24.07;16.03;;;;;;;4.13;nan;101401.84;4976937;28;20042;-79
2021/10/11 06:59:50;;;;;;;22.57;14.40;;;;;;;4.16;nan;101398.41;4987273;28;20034;-79
2021/10/11 07:02:19;;;;;;;23.60;15.47;;;;;;;4.32;nan;101407.41;4970318;28;20410;-80
2021/10/11 07:04:47;;;;;;;28.60;17.10;;;;;;;4.29;nan;101423.03;4993463;28;20056;-80
2021/10/11 07:07:14;;;;;;;28.67;17.90;;;;;;;4.29;nan;101417.78;4993578;28;20402;-81
2021/10/11 07:09:41;;;;;;;23.53;14.77;;;;;;;4.30;nan;101423.06;5000956;28;20026;-80
2021/10/11 07:12:08;;;;;;;27.83;18.07;;;;;;;4.39;nan;101417.13;5004852;28;20037;-79
2021/10/11 07:14:35;;;;;;;23.57;18.53;;;;;;;4.32;nan;101410.03;5005174;28;20034;-79
2021/10/11 07:17:02;;;;;;;28.03;18.47;;;;;;;4.34;nan;101411.78;5004207;28;20042;-79
2021/10/11 07:19:29;;;;;;;29.37;16.80;;;;;;;4.36;nan;101417.03;5006820;28;20552;-80
2021/10/11 07:21:56;;;;;;;26.10;17.07;;;;;;;4.46;nan;101411.13;4985481;28;20045;-79
2021/10/11 07:24:23;;;;;;;27.67;18.77;;;;;;;4.58;nan;101418.28;5006352;28;20041;-80
2021/10/11 07:27:03;;;;;;;28.70;18.13;;;;;;;4.71;nan;101426.38;4978136;28;20056;-84
2021/10/11 07:29:30;;;;;;;33.97;20.27;;;;;;;4.75;nan;101432.53;4975660;28;20399;-83
2021/10/11 07:31:57;;;;;;;29.17;19.13;;;;;;;4.74;nan;101431.66;4975607;28;20054;-82
2021/10/11 07:34:25;;;;;;;26.30;17.40;;;;;;;4.74;nan;101430.78;4968359;28;20030;-82
2021/10/11 07:36:52;;;;;;;29.87;19.40;;;;;;;4.82;nan;101433.50;4992223;28;20044;-83
2021/10/11 07:39:19;;;;;;;29.63;18.00;;;;;;;4.94;nan;101436.28;4984558;28;20065;-83
2021/10/11 07:41:46;;;;;;;28.43;17.17;;;;;;;5.00;nan;101425.91;4974734;28;20056;-83
2021/10/11 07:44:13;;;;;;;27.63;17.17;;;;;;;5.22;nan;101420.13;4979613;28;20034;-83
2021/10/11 07:46:41;;;;;;;28.10;18.37;;;;;;;5.31;nan;101424.63;4959708;28;20129;-83
2021/10/11 07:49:28;;;;;;;27.43;17.60;;;;;;;5.53;nan;101424.00;4982972;28;20043;-82
2021/10/11 07:52:06;;;;;;;27.67;17.57;;;;;;;5.55;nan;101419.69;4982673;28;20100;-82
2021/10/11 07:54:33;;;;;;;28.37;18.67;;;;;;;5.70;nan;101425.94;4959512;28;20270;-83
2021/10/11 07:57:01;;;;;;;32.40;18.43;;;;;;;5.77;nan;101423.41;4957499;28;20680;-82
2021/10/11 07:59:29;;;;;;;27.20;16.67;;;;;;;5.73;nan;101426.88;4959312;28;20049;-83
2021/10/11 08:01:56;;;;;;;202.37;127.17;;;;;;;5.92;nan;101425.38;4970482;28;20042;-83
2021/10/11 08:04:23;;;;;;;77.50;47.40;;;;;;;5.90;nan;101429.69;4960746;28;20608;-83
2021/10/11 08:06:50;;;;;;;31.07;19.77;;;;;;;5.90;nan;101440.19;4960530;28;20038;-83
2021/10/11 08:09:18;;;;;;;32.97;17.77;;;;;;;5.91;nan;101436.72;4970040;28;20050;-84
2021/10/11 08:11:47;;;;;;;29.40;17.30;;;;;;;5.93;nan;101435.00;4956593;28;20038;-83
2021/10/11 08:14:14;;;;;;;27.87;19.10;;;;;;;5.98;nan;101441.19;4980882;28;20403;-83
2021/10/11 08:16:42;;;;;;;29.07;18.17;;;;;;;6.01;nan;101438.59;4967583;28;20526;-83
2021/10/11 08:19:09;;;;;;;31.30;18.60;;;;;;;6.09;nan;101431.69;4970275;28;20049;-83
2021/10/11 08:21:37;;;;;;;30.17;18.30;;;;;;;6.19;nan;101443.13;4972079;28;20035;-83
2021/10/11 08:24:05;;;;;;;28.43;19.07;;;;;;;6.26;nan;101436.22;4980342;28;20388;-83
2021/10/11 08:26:34;;;;;;;28.13;17.60;;;;;;;6.32;nan;101433.66;4972450;28;20508;-83
2021/10/11 08:29:02;;;;;;;28.07;18.37;;;;;;;6.40;nan;101434.59;4980030;28;20038;-83
2021/10/11 08:31:30;;;;;;;28.13;18.37;;;;;;;6.55;nan;101434.72;4973774;28;20052;-83
2021/10/11 08:33:57;;;;;;;26.63;17.77;;;;;;;6.71;nan;101426.09;4974910;28;20031;-83
2021/10/11 08:36:24;;;;;;;27.87;17.23;;;;;;;6.90;nan;101424.50;4981304;28;20419;-83
2021/10/11 08:38:51;;;;;;;27.30;17.23;;;;;;;6.98;nan;101424.56;4955126;28;20046;-84
2021/10/11 08:41:18;;;;;;;27.73;17.60;;;;;;;7.04;nan;101430.69;4979991;28;20038;-83
2021/10/11 08:43:45;;;;;;;32.07;18.87;;;;;;;7.30;nan;101441.34;4975478;28;20038;-84
2021/10/11 08:46:13;;;;;;;28.70;17.37;;;;;;;7.30;nan;101444.00;4954259;28;20056;-83
2021/10/11 08:48:40;;;;;;;23.17;16.00;;;;;;;7.40;nan;101444.03;4991863;28;20659;-83
2021/10/11 08:51:08;;;;;;;29.33;17.33;;;;;;;7.32;nan;101439.66;4974361;28;20042;-84
2021/10/11 08:53:36;;;;;;;28.23;16.63;;;;;;;7.48;nan;101435.34;4975972;28;20034;-83
2021/10/11 08:56:04;;;;;;;32.10;17.50;;;;;;;7.67;nan;101452.06;4979203;28;20042;-84
2021/10/11 08:58:45;;;;;;;30.10;16.77;;;;;;;7.73;nan;101441.56;4985461;28;20046;-84
2021/10/11 09:01:12;;;;;;;30.97;17.93;;;;;;;7.90;nan;101433.72;4973513;28;20064;-85
2021/10/11 09:03:40;;;;;;;28.07;15.43;;;;;;;7.84;nan;101434.59;4996928;28;20056;-84
2021/10/11 09:06:10;;;;;;;27.97;17.00;;;;;;;7.90;nan;101439.88;4993594;28;20053;-84
2021/10/11 09:08:38;;;;;;;27.13;14.73;;;;;;;7.92;nan;101432.00;4988733;28;20042;-83
2021/10/11 09:11:10;;;;;;;31.40;16.30;;;;;;;7.97;nan;101439.88;4975301;28;20411;-86
2021/10/11 09:13:44;;;;;;;26.80;14.98;;;;;;;7.97;nan;101438.13;4973036;28;20049;-83
2021/10/11 09:16:18;;;;;;;31.70;19.63;;;;;;;8.22;nan;101443.44;4988877;28;20046;-84
2021/10/11 09:18:59;;;;;;;27.63;15.80;;;;;;;8.07;nan;101446.91;4995122;28;20067;-82
2021/10/11 09:21:39;;;;;;;29.93;19.07;;;;;;;7.98;nan;101439.88;4989343;28;20529;-85
2021/10/11 09:24:17;;;;;;;26.70;16.80;;;;;;;8.27;nan;101447.84;4983192;28;20046;-81
2021/10/11 09:26:53;;;;;;;27.67;16.27;;;;;;;8.35;nan;101448.78;4962505;28;20053;-84
2021/10/11 09:29:34;;;;;;;29.50;14.45;;;;;;;8.37;nan;101452.28;4964071;28;20069;-86
2021/10/11 09:32:04;;;;;;;26.80;16.23;;;;;;;8.39;nan;101447.88;4944440;28;20428;-80
2021/10/11 09:34:36;;;;;;;23.92;15.40;;;;;;;8.51;nan;101451.44;4969210;28;20491;-83
2021/10/11 09:37:06;;;;;;;23.38;15.38;;;;;;;8.48;nan;101451.41;4969221;28;20035;-84
2021/10/11 09:39:37;;;;;;;26.48;13.82;;;;;;;8.51;nan;101441.78;4957985;28;20056;-83
2021/10/11 09:42:09;;;;;;;25.55;14.73;;;;;;;8.60;nan;101444.41;4972890;28;20321;-83
2021/10/11 09:44:36;;;;;;;31.98;21.33;;;;;;;8.82;nan;101436.47;4972165;28;20464;-84
2021/10/11 09:47:11;;;;;;;26.50;14.98;;;;;;;8.74;nan;101436.47;4972555;28;20052;-84
2021/10/11 09:49:42;;;;;;;20.98;13.15;;;;;;;8.72;nan;101438.25;4961277;28;20503;-84
2021/10/11 09:52:09;;;;;;;23.77;13.57;;;;;;;8.64;nan;101435.59;4968599;28;20625;-84
2021/10/11 09:54:36;;;;;;;25.90;14.32;;;;;;;8.76;nan;101434.75;4954482;28;20050;-84
2021/10/11 09:57:05;;;;;;;27.08;13.73;;;;;;;8.99;nan;101429.41;4976444;28;20042;-83
2021/10/11 09:59:33;;;;;;;25.05;13.57;;;;;;;9.16;nan;101427.63;4975342;28;20060;-85
2021/10/11 10:02:01;;;;;;;25.33;13.52;;;;;;;9.18;nan;101425.00;4973751;28;20515;-83
2021/10/11 10:04:33;;;;;;;25.55;13.70;;;;;;;9.40;nan;101416.13;4954522;28;20627;-84
2021/10/11 10:07:07;;;;;;;23.98;13.20;;;;;;;9.43;nan;101423.19;4988028;28;20046;-84
2021/10/11 10:09:42;;;;;;;22.42;13.00;;;;;;;9.65;nan;101414.28;4976257;28;20523;-83
2021/10/11 10:12:09;;;;;;;19.88;11.68;;;;;;;9.88;nan;101411.53;4985170;28;20038;-84
2021/10/11 10:14:40;;;;;;;22.90;12.43;;;;;;;10.24;nan;101414.84;4975790;28;20034;-85
2021/10/11 10:17:07;;;;;;;24.05;13.00;;;;;;;10.47;nan;101417.31;4991246;28;20052;-84
2021/10/11 10:19:38;;;;;;;21.10;11.02;;;;;;;10.80;nan;101422.31;4952712;28;20053;-84
2021/10/11 10:22:11;;;;;;;17.75;10.00;;;;;;;10.97;nan;101415.09;4950111;28;20054;-82
2021/10/11 10:24:38;;;;;;;19.75;10.82;;;;;;;11.05;nan;101409.75;4981227;28;20415;-84
2021/10/11 10:27:10;;;;;;;14.93;9.80;;;;;;;11.10;nan;101415.88;4964159;28;20034;-83
2021/10/11 10:29:49;;;;;;;16.48;9.82;;;;;;;11.30;nan;101412.13;4984066;28;20038;-84
2021/10/11 10:32:18;;;;;;;14.55;9.30;;;;;;;11.56;nan;101402.09;4970395;28;20404;-83
2021/10/11 10:34:58;;;;;;;18.08;8.77;;;;;;;11.82;nan;101399.13;4969242;28;20618;-83
2021/10/11 10:37:35;;;;;;;13.32;8.57;;;;;;;11.78;nan;101400.94;4971862;28;20527;-82
2021/10/11 10:40:14;;;;;;;21.40;9.02;;;;;;;11.94;nan;101392.78;4960001;28;20418;-85
2021/10/11 10:42:41;;;;;;;14.90;8.27;;;;;;;12.05;nan;101389.09;4964902;28;20492;-81
2021/10/11 10:45:19;;;;;;;14.32;8.73;;;;;;;12.01;nan;101400.63;4966705;28;20172;-83
2021/10/11 10:47:48;;;;;;;12.50;7.80;;;;;;;12.23;nan;101392.34;4958247;28;20053;-82
2021/10/11 10:50:22;;;;;;;12.95;7.80;;;;;;;12.00;nan;101396.22;4991155;28;20056;-81
2021/10/11 10:52:52;;;;;;;11.32;8.90;;;;;;;12.06;nan;101388.19;4973726;28;20061;-85
2021/10/11 10:55:20;;;;;;;14.38;8.00;;;;;;;12.23;nan;101381.75;4962894;28;20038;-83
2021/10/11 10:57:47;;;;;;;15.70;8.73;;;;;;;12.27;nan;101371.06;4986382;28;20539;-82
2021/10/11 11:00:19;;;;;;;16.95;8.52;;;;;;;12.62;nan;101373.16;4974689;28;20495;-85
2021/10/11 11:02:49;;;;;;;15.00;8.45;;;;;;;12.80;nan;101377.25;4984961;28;20034;-84
2021/10/11 11:05:18;;;;;;;12.15;7.57;;;;;;;12.81;nan;101373.69;4975694;28;20044;-82
2021/10/11 11:07:50;;;;;;;12.93;7.80;;;;;;;12.83;nan;101378.97;4977107;28;20038;-84
2021/10/11 11:10:31;;;;;;;15.55;8.60;;;;;;;12.69;nan;101368.59;4978497;28;20747;-83
2021/10/11 11:13:01;;;;;;;12.00;7.63;;;;;;;12.94;nan;101372.53;4960017;28;20076;-84
2021/10/11 11:15:36;;;;;;;12.70;7.28;;;;;;;13.04;nan;101365.31;4972628;28;20420;-83
2021/10/11 11:18:30;;;;;;;15.60;7.95;;;;;;;12.83;nan;101379.84;4974378;28;20503;-85
2021/10/11 11:20:57;;;;;;;13.10;6.90;;;;;;;12.77;nan;101369.34;4991610;28;20062;-85
2021/10/11 11:23:31;;;;;;;13.50;7.20;;;;;;;12.67;nan;101368.63;4979502;28;20042;-84
2021/10/11 11:26:02;;;;;;;15.45;8.25;;;;;;;12.69;nan;101371.25;4985787;28;20046;-87
2021/10/11 11:28:29;;;;;;;13.85;7.38;;;;;;;12.66;nan;101366.88;4978736;28;20504;-84
2021/10/11 11:31:02;;;;;;;11.25;7.18;;;;;;;12.72;nan;101362.38;4967244;28;20048;-87
2021/10/11 11:33:30;;;;;;;11.05;5.80;;;;;;;12.84;nan;101357.72;4969271;28;20042;-84
2021/10/11 11:35:58;;;;;;;10.52;5.03;;;;;;;12.94;nan;101350.47;4963497;28;20045;-83
2021/10/11 11:38:27;;;;;;;6.95;4.57;;;;;;;13.04;nan;101351.19;4956127;28;20049;-84
2021/10/11 11:40:57;;;;;;;8.65;4.78;;;;;;;13.15;nan;101351.84;4968791;28;20043;-85
2021/10/11 11:43:27;;;;;;;9.52;4.53;;;;;;;13.23;nan;101352.59;4972340;28;20034;-85
2021/10/11 11:45:56;;;;;;;11.38;4.63;;;;;;;13.28;nan;101347.16;4974587;28;20048;-84